Latest Coastal Weather Observations for Wadeye (Port Keats)

IDD60701

Issued at 10:41 pm CST Sunday 1 February 2015 (issued every 10 minutes, with the page automatically refreshed every 10 minutes)

About coastal observations | Map of coastal stations | Coastal observations for NT | Marine services | Other Formats
Station Details ID: 014948 Name: PORT KEATS AIRPORT Lat: -14.25 Lon: 129.53 Height: 28.0 m
Data from the previous 72 hours. | See also: Recent months at Wadeye (Port Keats)
Date/Time
CST
Temp

°C
Wind Pressure Rain
since 9am
mm
Weather Cloud Vis
km
Sea
Height
m
Swell
Dir
 
Speed
knots
Gust
knots
hPa Trend Height
m
Period
s
Dir
01/10:30pm 25.6 CALM 0 2 1008.3 - 2.2 - - - - - - -
01/10:00pm 26.2 NE 3 5 1008.1 - 2.2 - - - - - - -
01/09:30pm 26.3 ENE 4 5 1007.7 - 2.2 - - - - - - -
01/09:00pm 26.8 ENE 1 4 1007.6 - 2.2 - - - - - - -
01/08:30pm 27.1 NE 6 7 1007.6 - 2.2 - - - - - - -
01/08:00pm 27.4 NNE 5 6 1007.2 - 2.2 - - - - - - -
01/07:30pm 27.2 W 2 4 1007.0 - 2.2 - - - - - - -
01/07:00pm 28.0 CALM 0 0 1006.7 - 2.2 - - - - - - -
01/06:30pm 28.2 SE 5 6 1006.4 - 2.2 - - - - - - -
01/06:00pm 28.3 SE 7 11 1006.2 - 2.2 - - - - - - -
01/05:30pm 28.8 CALM 0 0 1006.3 - 2.2 - - - - - - -
01/05:00pm 28.6 NNE 5 6 1006.2 - 2.2 - - - - - - -
01/04:30pm 28.3 CALM 0 0 1005.9 - 2.2 - - - - - - -
01/04:00pm 28.0 N 4 6 1005.2 - 2.2 - - - - - - -
01/03:30pm 27.8 ESE 3 5 1006.4 - 2.2 - - - - - - -
01/03:00pm 27.7 E 5 8 1006.7 - 2.2 - - - - - - -
01/02:30pm 27.8 CALM 0 3 1006.4 - 2.2 - - - - - - -
01/02:00pm 27.5 NNW 1 4 1006.6 - 2.2 - - - - - - -
01/01:30pm 25.9 SSW 4 6 1007.1 - 2.2 - - - - - - -
01/01:00pm 25.5 ESE 2 5 1007.8 - 2.2 - - - - - - -
01/12:30pm 24.5 WSW 7 9 1008.4 - 1.8 - - - - - - -
01/12:00pm 26.2 SSW 13 21 1008.8 - 0.0 - - - - - - -
01/11:30am 31.1 WNW 7 11 1008.3 - 0.0 - - - - - - -
01/11:00am 31.2 WNW 5 9 1008.4 - 0.0 - - - - - - -
01/10:30am 30.7 WNW 7 11 1008.7 - 0.0 - - - - - - -
01/10:00am 31.0 WNW 6 9 1008.8 - 0.0 - - - - - - -
01/09:30am 30.5 WNW 6 8 1008.8 - 0.0 - - - - - - -
01/09:00am 30.4 W 5 7 1008.6 - 0.0 - - - - - - -
01/08:30am 29.9 WNW 5 7 1008.5 - 0.0 - - - - - - -
01/08:00am 28.4 WSW 1 4 1008.2 - 0.0 - - - - - - -
01/07:30am 27.3 CALM 0 0 1007.6 - 0.0 - - - - - - -
01/07:00am 26.3 CALM 0 0 1007.3 - 0.0 - - - - - - -
01/06:30am 26.1 CALM 0 0 1007.0 - 0.0 - - - - - - -
01/06:00am 26.1 CALM 0 0 1006.8 - 0.0 - - - - - - -
01/05:30am 26.3 CALM 0 0 1006.6 - 0.0 - - - - - - -
01/05:00am 26.5 CALM 0 0 1006.3 - 0.0 - - - - - - -
01/04:30am 26.4 CALM 0 0 1006.3 - 0.0 - - - - - - -
01/04:00am 26.5 CALM 0 0 1006.4 - 0.0 - - - - - - -
01/03:30am 26.5 CALM 0 0 1006.5 - 0.0 - - - - - - -
01/03:00am 26.5 CALM 0 0 1006.4 - 0.0 - - - - - - -
01/02:30am 26.6 CALM 0 0 1006.5 - 0.0 - - - - - - -
01/02:00am 26.8 CALM 0 0 1006.9 - 0.0 - - - - - - -
01/01:30am 26.9 WNW 2 3 1007.2 - 0.0 - - - - - - -
01/01:00am 26.9 WNW 2 4 1007.8 - 0.0 - - - - - - -
01/12:30am 26.6 W 2 4 1008.0 - 0.0 - - - - - - -
01/12:00am 25.9 CALM 0 0 1008.2 - 0.0 - - - - - - -
 
Date/Time
CST
Temp

°C
Wind Pressure Rain
since 9am
mm
Weather Cloud Vis
km
Sea
Height
m
Swell
Dir
 
Speed
knots
Gust
knots
hPa Trend Height
m
Period
s
Dir
31/11:30pm 26.4 CALM 0 0 1008.3 - 0.0 - - - - - - -
31/11:00pm 27.0 NNW 2 5 1008.3 - 0.0 - - - - - - -
31/10:30pm 26.6 CALM 0 0 1008.2 - 0.0 - - - - - - -
31/10:00pm 27.1 CALM 0 0 1008.0 - 0.0 - - - - - - -
31/09:30pm 27.3 CALM 0 0 1007.6 - 0.0 - - - - - - -
31/09:00pm 27.1 CALM 0 0 1007.3 - 0.0 - - - - - - -
31/08:30pm 27.9 WNW 2 4 1006.9 - 0.0 - - - - - - -
31/08:00pm 28.2 W 1 3 1006.6 - 0.0 - - - - - - -
31/07:30pm 28.9 WNW 4 6 1006.4 - 0.0 - - - - - - -
31/07:00pm 29.9 WNW 5 8 1005.7 - 0.0 - - - - - - -
31/06:30pm 30.5 WNW 6 8 1005.1 - 0.0 - - - - - - -
31/06:00pm 31.0 NW 7 10 1005.0 - 0.0 - - - - - - -
31/05:30pm 32.3 WSW 3 5 1005.0 - 0.0 - - - - - - -
31/05:00pm 32.1 W 5 8 1005.2 - 0.0 - - - - - - -
31/04:30pm 31.9 WSW 6 9 1005.2 - 0.0 - - - - - - -
31/04:00pm 31.9 WSW 6 10 1005.4 - 0.0 - - - - - - -
31/03:30pm 31.6 W 7 10 1005.8 - 0.0 - - - - - - -
31/03:00pm 32.0 W 8 13 1006.0 - 0.0 - - - - - - -
31/02:30pm 32.2 WSW 5 9 1006.3 - 0.0 - - - - - - -
31/02:00pm 32.0 WSW 7 11 1006.6 - 0.0 - - - - - - -
31/01:30pm 31.4 W 8 14 1007.0 - 0.0 - - - - - - -
31/01:00pm 31.1 WSW 5 8 1007.4 - 0.0 - - - - - - -
31/12:30pm 30.7 WSW 6 9 1007.8 - 0.0 - - - - - - -
31/12:00pm 31.2 SW 7 11 1008.1 - 0.0 - - - - - - -
31/11:30am 30.8 SW 5 11 1008.3 - 0.0 - - - - - - -
31/11:00am 30.4 SW 5 10 1008.7 - 0.0 - - - - - - -
31/10:30am 29.2 SW 4 7 1008.6 - 0.0 - - - - - - -
31/10:00am 27.1 CALM 0 0 1009.0 - 0.0 - - - - - - -
31/09:30am 24.8 E 3 5 1009.0 - 0.0 - - - - - - -
31/09:00am 24.2 NNE 4 6 1008.8 - 34.8 Recent precip. - - - - - -
31/08:30am 23.6 WNW 3 5 1008.2 - 34.8 - - - - - - -
31/08:00am 23.5 SW 6 9 1007.8 - 34.2 - - - - - - -
31/07:30am 23.3 SW 5 14 1008.0 - 14.4 - - - - - - -
31/07:00am 25.0 WSW 5 10 1007.4 - 2.8 - - - - - - -
31/06:30am 25.0 ESE 3 4 1006.9 - 1.6 - - - - - - -
31/06:00am 24.9 ESE 3 4 1006.8 - 1.6 - - - - - - -
31/05:30am 24.8 SE 2 3 1006.5 - 1.6 - - - - - - -
31/05:00am 24.8 SE 3 4 1006.5 - 1.6 - - - - - - -
31/04:30am 24.8 CALM 0 0 1006.6 - 1.6 - - - - - - -
31/04:00am 24.8 CALM 0 0 1006.6 - 1.6 - - - - - - -
31/03:30am 24.9 CALM 0 0 1006.2 - 1.6 - - - - - - -
31/03:00am 24.9 NNW 1 3 1006.4 - 1.6 - - - - - - -
31/02:30am 24.7 NNE 4 6 1006.7 - 1.6 - - - - - - -
31/02:00am 24.9 N 4 5 1007.4 - 1.6 - - - - - - -
31/01:30am 24.9 NW 7 9 1007.9 - 1.6 - - - - - - -
31/01:00am 25.4 NNE 5 7 1008.1 - 1.6 - - - - - - -
31/12:30am 25.4 CALM 0 0 1008.6 - 1.2 - - - - - - -
31/12:00am 25.6 S 3 6 1009.1 - 0.0 - - - - - - -
 
Date/Time
CST
Temp

°C
Wind Pressure Rain
since 9am
mm
Weather Cloud Vis
km
Sea
Height
m
Swell
Dir
 
Speed
knots
Gust
knots
hPa Trend Height
m
Period
s
Dir
30/11:30pm 25.6 SW 3 6 1009.6 - 0.0 - - - - - - -
30/11:00pm 25.7 ENE 2 3 1009.3 - 0.0 - - - - - - -
30/10:30pm 25.7 SE 1 3 1009.2 - 0.0 - - - - - - -
30/10:00pm 25.8 E 3 4 1008.6 - 0.0 - - - - - - -
30/09:30pm 25.9 ENE 3 4 1008.3 - 0.0 - - - - - - -
30/09:00pm 26.0 ENE 4 5 1008.1 - 0.0 - - - - - - -
30/08:30pm 26.1 E 4 6 1007.7 - 0.0 - - - - - - -
30/08:00pm 26.3 ESE 5 7 1007.3 - 0.0 - - - - - - -
30/07:30pm 26.8 ESE 4 5 1006.4 - 0.0 - - - - - - -
30/07:00pm 27.2 ESE 5 6 1006.3 - 0.0 - - - - - - -
30/06:30pm 27.5 ESE 6 9 1006.3 - 0.0 - - - - - - -
30/06:00pm 28.2 NE 7 10 1006.0 - 0.0 - - - - - - -
30/05:30pm 30.5 WNW 5 8 1005.5 - 0.0 - - - - - - -
30/05:00pm 31.1 WNW 6 8 1005.1 - 0.0 - - - - - - -
30/04:30pm 31.9 NW 7 11 1005.0 - 0.0 - - - - - - -
30/04:00pm 31.9 WNW 7 12 1005.1 - 0.0 - - - - - - -
30/03:30pm 30.9 WNW 7 10 1005.6 - 0.0 - - - - - - -
30/03:00pm 30.9 WNW 7 11 1005.7 - 0.0 - - - - - - -
30/02:30pm 30.6 W 7 10 1005.3 - 0.0 - - - - - - -
30/02:00pm 31.0 NNW 9 12 1005.7 - 0.0 - - - - - - -
30/01:30pm 31.7 NW 8 13 1006.4 - 0.0 - - - - - - -
30/01:00pm 31.5 WNW 8 12 1006.9 - 0.0 - - - - - - -
30/12:30pm 30.9 NW 8 11 1007.3 - 0.0 - - - - - - -
30/12:00pm 31.1 NNW 9 13 1007.8 - 0.0 - - - - - - -
30/11:30am 31.4 NNW 10 14 1008.0 - 0.0 - - - - - - -
30/11:00am 30.9 N 9 13 1008.2 - 0.0 - - - - - - -
30/10:30am 30.6 NNW 7 11 1008.2 - 0.0 - - - - - - -
30/10:00am 30.4 N 5 8 1008.0 - 0.0 - - - - - - -
30/09:30am 29.8 N 5 7 1007.7 - 0.0 - - - - - - -
30/09:00am 29.9 NNE 3 5 1007.6 - 0.2 - - - - - - -
30/08:30am 29.6 ESE 1 3 1007.1 - 0.2 - - - - - - -
30/08:00am 28.4 SE 4 5 1006.9 - 0.2 - - - - - - -
30/07:30am 26.7 S 3 4 1006.7 - 0.2 - - - - - - -
30/07:00am 26.4 SSE 3 5 1006.5 - 0.2 - - - - - - -
30/06:30am 26.9 CALM 0 0 1006.1 - 0.2 - - - - - - -
30/06:00am 27.2 NE 3 4 1005.8 - 0.2 - - - - - - -
30/05:30am 27.2 NNW 3 4 1006.0 - 0.2 - - - - - - -
30/05:00am 27.5 N 5 6 1005.9 - 0.2 - - - - - - -
30/04:30am 27.7 N 3 5 1005.9 - 0.2 - - - - - - -
30/04:00am 27.9 NNW 5 7 1006.0 - 0.2 - - - - - - -
30/03:30am 27.5 CALM 0 2 1006.2 - 0.2 - - - - - - -
30/03:00am 27.6 NNE 3 5 1006.3 - 0.2 - - - - - - -
30/02:30am 27.2 WNW 3 4 1006.5 - 0.2 - - - - - - -
30/02:00am 27.5 NNW 4 5 1006.7 - 0.2 - - - - - - -
30/01:30am 27.5 N 4 5 1007.0 - 0.2 - - - - - - -
30/01:00am 27.3 NNE 3 4 1007.4 - 0.2 - - - - - - -
30/12:30am 27.4 NE 3 4 1007.7 - 0.2 - - - - - - -
30/12:00am 27.5 NNE 2 4 1007.9 - 0.2 - - - - - - -
 
Date/Time
CST
Temp

°C
Wind Pressure Rain
since 9am
mm
Weather Cloud Vis
km
Sea
Height
m
Swell
Dir
 
Speed
knots
Gust
knots
hPa Trend Height
m
Period
s
Dir
29/11:30pm 27.3 CALM 0 0 1008.2 - 0.2 - - - - - - -
29/11:00pm 27.7 CALM 0 4 1008.2 - 0.2 - - - - - - -

Other Formats:

Comma delimited format used in spreadsheet applications
http://www.bom.gov.au/fwo/IDD60701/IDD60701.95111.axf

JavaScript Object Notation format (JSON) in row-major order
http://www.bom.gov.au/fwo/IDD60701/IDD60701.95111.json